الصفحة الرئيسية
METAR-TAF:

METAR-TAF

مطار :

مطار واتاي الدولي

فيينتيان, لاوس

دائرة عرض: 17-57N, خط طول: 102-34E, ارتفاع: 171 متر

مراقبة الطقس الحالي

تاريخ ووقت الإصدار 1ساعة و 40 دقيقة قبل الساعة 16:00UTC
ريح 2 عقدة من الشمال الغربي
درجة الحرارة 28°درجة مئوية
الرطوبة 70%
ضغط 1008 hPa
الرؤية: 3000 متر
غشاء

METAR: VLVT 011600Z 32002KT 3000 BR NSC 28/22 Q1008 NOSIG

زمن: 00:40 (17:40 UTC)

توقعات

تاريخ ووقت الإصدار 40 دقيقة قبل الساعة 17:00UTC
التوقعات صالحة من01 الساعة 18 UTC إلى 02 الساعة 18 UTC
ريح 4 عقدة من الشرق
الرؤية: 7000 متر
غيوم قليلة على ارتفاع 2000 قدم
غيوم قليلة على ارتفاع 20000 قدم

TAF: VLVT 011700Z 0118/0218 09004KT 7000 FEW020 FEW200

أرصاد الطقس والتوقعات من أكثر من 4000 مطار (تقارير الطقس للمطار METAR والتنبؤ بالطقس بالمطارTAF).

المحطات المتاحة هي النقط الصفراء والحمراء على الخريطة.

حرك المؤشر فوق النقطة لمعرفة اسم المحطة.

ثم انقر لمعرفة أرصاد وتوقعات الطقس.

لتغيير الخارطة: اضغط على الأزرار الخضراء مع رمز الصليب الأسود للتكبير. على الزر الأخضر مع شرطة للتصغير، أو على الأسهم الخضراء للخرائط المجاورة.


METAR-TAF: